sensor_id;sensor_type;location;lat;lon;timestamp;pressure;altitude;pressure_sealevel;temperature;humidity
57248;BME280;55809;46.618;10.764;2023-07-13T00:02:15;93123.69;;;18.80;89.06
57248;BME280;55809;46.618;10.764;2023-07-13T00:04:44;93122.31;;;18.76;89.56
57248;BME280;55809;46.618;10.764;2023-07-13T00:07:11;93116.94;;;18.72;89.96
57248;BME280;55809;46.618;10.764;2023-07-13T00:09:40;93101.38;;;18.69;89.92
57248;BME280;55809;46.618;10.764;2023-07-13T00:12:22;93113.09;;;18.82;90.00
57248;BME280;55809;46.618;10.764;2023-07-13T00:14:49;93118.84;;;18.84;89.53
57248;BME280;55809;46.618;10.764;2023-07-13T00:17:16;93120.81;;;18.84;88.99
57248;BME280;55809;46.618;10.764;2023-07-13T00:19:45;93094.47;;;18.55;89.13
57248;BME280;55809;46.618;10.764;2023-07-13T00:22:12;93132.97;;;18.83;89.32
57248;BME280;55809;46.618;10.764;2023-07-13T00:24:39;93119.28;;;18.61;88.97
57248;BME280;55809;46.618;10.764;2023-07-13T00:27:07;93133.28;;;18.63;90.02
57248;BME280;55809;46.618;10.764;2023-07-13T00:29:35;93103.44;;;18.34;90.56
57248;BME280;55809;46.618;10.764;2023-07-13T00:32:03;93126.00;;;18.47;90.55
57248;BME280;55809;46.618;10.764;2023-07-13T00:34:30;93098.41;;;18.32;90.33
57248;BME280;55809;46.618;10.764;2023-07-13T00:36:58;93133.19;;;18.54;90.57
57248;BME280;55809;46.618;10.764;2023-07-13T00:39:25;93076.50;;;18.23;89.47
57248;BME280;55809;46.618;10.764;2023-07-13T00:41:52;93088.47;;;18.25;89.73
57248;BME280;55809;46.618;10.764;2023-07-13T00:44:20;93138.75;;;18.63;89.12
57248;BME280;55809;46.618;10.764;2023-07-13T00:46:48;93112.00;;;18.45;88.35
57248;BME280;55809;46.618;10.764;2023-07-13T00:49:18;93140.75;;;18.71;87.67
57248;BME280;55809;46.618;10.764;2023-07-13T00:51:49;93149.53;;;18.79;87.12
57248;BME280;55809;46.618;10.764;2023-07-13T00:54:21;93147.44;;;18.70;88.56
57248;BME280;55809;46.618;10.764;2023-07-13T00:56:51;93140.69;;;18.62;89.32
57248;BME280;55809;46.618;10.764;2023-07-13T00:59:19;93125.13;;;18.50;89.56
57248;BME280;55809;46.618;10.764;2023-07-13T01:01:47;93116.88;;;18.28;90.54
57248;BME280;55809;46.618;10.764;2023-07-13T01:04:14;93107.97;;;18.15;90.81
57248;BME280;55809;46.618;10.764;2023-07-13T01:06:42;93136.00;;;18.28;90.78
57248;BME280;55809;46.618;10.764;2023-07-13T01:09:11;93136.22;;;18.34;90.58
57248;BME280;55809;46.618;10.764;2023-07-13T01:11:40;93145.06;;;18.38;90.82
57248;BME280;55809;46.618;10.764;2023-07-13T01:14:07;93102.19;;;18.13;90.61
57248;BME280;55809;46.618;10.764;2023-07-13T01:16:37;93130.06;;;18.42;90.38
57248;BME280;55809;46.618;10.764;2023-07-13T01:19:18;93086.31;;;18.42;90.73
57248;BME280;55809;46.618;10.764;2023-07-13T01:21:52;93036.88;;;18.27;91.04
57248;BME280;55809;46.618;10.764;2023-07-13T01:35:27;93070.66;;;17.99;91.03
57248;BME280;55809;46.618;10.764;2023-07-13T01:37:56;93089.19;;;18.17;90.23
57248;BME280;55809;46.618;10.764;2023-07-13T01:40:23;93080.19;;;18.16;90.77
57248;BME280;55809;46.618;10.764;2023-07-13T01:42:50;93086.44;;;18.17;92.32
57248;BME280;55809;46.618;10.764;2023-07-13T01:45:17;93077.66;;;18.00;93.03
57248;BME280;55809;46.618;10.764;2023-07-13T01:47:44;93096.88;;;17.96;93.20
57248;BME280;55809;46.618;10.764;2023-07-13T01:50:11;93091.31;;;18.00;93.85
57248;BME280;55809;46.618;10.764;2023-07-13T01:52:38;93027.69;;;17.65;93.29
57248;BME280;55809;46.618;10.764;2023-07-13T01:55:08;93056.38;;;17.95;93.33
57248;BME280;55809;46.618;10.764;2023-07-13T01:57:35;93056.69;;;17.97;93.03
57248;BME280;55809;46.618;10.764;2023-07-13T02:00:06;93089.25;;;18.26;92.13
57248;BME280;55809;46.618;10.764;2023-07-13T02:02:34;93065.78;;;18.16;91.55
57248;BME280;55809;46.618;10.764;2023-07-13T02:05:01;93086.41;;;18.30;91.72
57248;BME280;55809;46.618;10.764;2023-07-13T02:07:28;93087.16;;;18.30;91.43
57248;BME280;55809;46.618;10.764;2023-07-13T02:09:55;93090.53;;;18.34;89.94
57248;BME280;55809;46.618;10.764;2023-07-13T02:12:23;93046.91;;;18.09;88.81
57248;BME280;55809;46.618;10.764;2023-07-13T02:14:50;93100.44;;;18.41;88.69
57248;BME280;55809;46.618;10.764;2023-07-13T02:17:17;93089.00;;;18.33;89.73
57248;BME280;55809;46.618;10.764;2023-07-13T02:19:44;93084.59;;;18.14;91.16
57248;BME280;55809;46.618;10.764;2023-07-13T02:22:11;93071.22;;;17.94;91.99
57248;BME280;55809;46.618;10.764;2023-07-13T02:24:38;93061.84;;;17.82;92.98
57248;BME280;55809;46.618;10.764;2023-07-13T02:29:42;93086.75;;;17.84;93.63
57248;BME280;55809;46.618;10.764;2023-07-13T02:32:09;93079.13;;;17.79;93.85
57248;BME280;55809;46.618;10.764;2023-07-13T02:34:36;93092.88;;;17.88;93.27
57248;BME280;55809;46.618;10.764;2023-07-13T02:37:04;93068.19;;;17.79;93.04
57248;BME280;55809;46.618;10.764;2023-07-13T02:39:31;93060.47;;;17.77;92.42
57248;BME280;55809;46.618;10.764;2023-07-13T02:41:59;93096.78;;;18.00;92.17
57248;BME280;55809;46.618;10.764;2023-07-13T02:44:26;93079.41;;;17.94;91.95
57248;BME280;55809;46.618;10.764;2023-07-13T02:46:55;93060.00;;;17.79;91.35
57248;BME280;55809;46.618;10.764;2023-07-13T02:49:22;93043.09;;;17.71;91.03
57248;BME280;55809;46.618;10.764;2023-07-13T02:51:49;93092.72;;;18.04;90.72
57248;BME280;55809;46.618;10.764;2023-07-13T02:54:16;93088.75;;;18.05;90.09
57248;BME280;55809;46.618;10.764;2023-07-13T02:56:43;93081.53;;;18.12;88.84
57248;BME280;55809;46.618;10.764;2023-07-13T02:59:10;93087.47;;;18.10;88.50
57248;BME280;55809;46.618;10.764;2023-07-13T03:01:38;93069.13;;;17.98;88.10
57248;BME280;55809;46.618;10.764;2023-07-13T03:04:07;93078.28;;;18.04;88.88
57248;BME280;55809;46.618;10.764;2023-07-13T03:06:34;93079.59;;;17.99;89.45
57248;BME280;55809;46.618;10.764;2023-07-13T03:09:01;93072.63;;;17.98;89.37
57248;BME280;55809;46.618;10.764;2023-07-13T03:11:29;93043.38;;;17.73;89.41
57248;BME280;55809;46.618;10.764;2023-07-13T03:13:58;93076.81;;;17.90;89.47
57248;BME280;55809;46.618;10.764;2023-07-13T03:16:25;93081.19;;;17.88;89.11
57248;BME280;55809;46.618;10.764;2023-07-13T03:18:52;93063.72;;;17.72;88.79
57248;BME280;55809;46.618;10.764;2023-07-13T03:21:21;93084.56;;;17.79;88.91
57248;BME280;55809;46.618;10.764;2023-07-13T03:23:48;93068.94;;;17.67;88.82
57248;BME280;55809;46.618;10.764;2023-07-13T03:26:16;93087.66;;;17.81;89.01
57248;BME280;55809;46.618;10.764;2023-07-13T03:28:44;93086.88;;;17.80;89.57
57248;BME280;55809;46.618;10.764;2023-07-13T03:31:13;93095.50;;;17.79;90.15
57248;BME280;55809;46.618;10.764;2023-07-13T03:33:40;93073.47;;;17.61;90.87
57248;BME280;55809;46.618;10.764;2023-07-13T03:36:11;93088.72;;;17.71;90.83
57248;BME280;55809;46.618;10.764;2023-07-13T03:38:40;93067.56;;;17.49;91.44
57248;BME280;55809;46.618;10.764;2023-07-13T03:41:08;93098.88;;;17.70;91.01
57248;BME280;55809;46.618;10.764;2023-07-13T03:43:34;93097.78;;;17.68;92.01
57248;BME280;55809;46.618;10.764;2023-07-13T03:46:01;93042.91;;;17.27;91.67
57248;BME280;55809;46.618;10.764;2023-07-13T03:48:28;93060.72;;;17.45;90.53
57248;BME280;55809;46.618;10.764;2023-07-13T03:50:55;93066.69;;;17.52;90.53
57248;BME280;55809;46.618;10.764;2023-07-13T03:53:22;93095.72;;;17.72;90.86
57248;BME280;55809;46.618;10.764;2023-07-13T03:55:51;93082.53;;;17.57;91.50
57248;BME280;55809;46.618;10.764;2023-07-13T03:58:27;93067.56;;;17.49;91.71
57248;BME280;55809;46.618;10.764;2023-07-13T04:00:54;93071.38;;;17.52;91.69
57248;BME280;55809;46.618;10.764;2023-07-13T04:03:22;93087.63;;;17.68;91.70
57248;BME280;55809;46.618;10.764;2023-07-13T04:05:50;93058.75;;;17.45;91.48
57248;BME280;55809;46.618;10.764;2023-07-13T04:08:17;93094.94;;;17.71;91.02
57248;BME280;55809;46.618;10.764;2023-07-13T04:10:44;93089.03;;;17.73;91.08
57248;BME280;55809;46.618;10.764;2023-07-13T04:13:13;93081.59;;;17.73;90.97
57248;BME280;55809;46.618;10.764;2023-07-13T04:15:40;93085.88;;;17.74;91.02
57248;BME280;55809;46.618;10.764;2023-07-13T04:18:07;93081.84;;;17.79;91.03
57248;BME280;55809;46.618;10.764;2023-07-13T04:20:34;93083.38;;;17.80;90.98
57248;BME280;55809;46.618;10.764;2023-07-13T04:23:01;93082.19;;;17.81;90.51
57248;BME280;55809;46.618;10.764;2023-07-13T04:25:29;93077.91;;;17.80;90.17
57248;BME280;55809;46.618;10.764;2023-07-13T04:27:56;93031.34;;;17.49;90.40
57248;BME280;55809;46.618;10.764;2023-07-13T04:30:24;93048.44;;;17.62;90.39
57248;BME280;55809;46.618;10.764;2023-07-13T04:32:52;93086.53;;;17.91;90.59
57248;BME280;55809;46.618;10.764;2023-07-13T04:35:19;93077.03;;;17.83;90.57
57248;BME280;55809;46.618;10.764;2023-07-13T04:37:47;93094.34;;;18.02;90.31
57248;BME280;55809;46.618;10.764;2023-07-13T04:40:16;93046.13;;;17.73;89.81
57248;BME280;55809;46.618;10.764;2023-07-13T04:42:44;93071.09;;;17.97;89.69
57248;BME280;55809;46.618;10.764;2023-07-13T04:45:11;93046.44;;;17.88;89.96
57248;BME280;55809;46.618;10.764;2023-07-13T04:47:40;93066.84;;;17.96;89.91
57248;BME280;55809;46.618;10.764;2023-07-13T04:50:09;93084.16;;;18.15;90.12
57248;BME280;55809;46.618;10.764;2023-07-13T04:52:36;93076.91;;;18.21;90.45
57248;BME280;55809;46.618;10.764;2023-07-13T04:55:04;93041.56;;;18.05;90.64
57248;BME280;55809;46.618;10.764;2023-07-13T04:57:31;93066.75;;;18.22;90.68
57248;BME280;55809;46.618;10.764;2023-07-13T04:59:59;93071.72;;;18.36;90.83
57248;BME280;55809;46.618;10.764;2023-07-13T05:02:31;93073.06;;;18.54;88.60
57248;BME280;55809;46.618;10.764;2023-07-13T05:05:01;93070.88;;;18.70;86.14
57248;BME280;55809;46.618;10.764;2023-07-13T05:07:29;93026.53;;;18.44;87.88
57248;BME280;55809;46.618;10.764;2023-07-13T05:09:58;93038.84;;;18.49;87.72
57248;BME280;55809;46.618;10.764;2023-07-13T05:12:25;93080.81;;;18.77;88.72
57248;BME280;55809;46.618;10.764;2023-07-13T05:14:52;93051.81;;;18.58;89.85
57248;BME280;55809;46.618;10.764;2023-07-13T05:17:19;93077.88;;;18.71;89.63
57248;BME280;55809;46.618;10.764;2023-07-13T05:19:46;93078.31;;;18.70;88.64
57248;BME280;55809;46.618;10.764;2023-07-13T05:22:15;93046.28;;;18.48;88.54
57248;BME280;55809;46.618;10.764;2023-07-13T05:24:42;93019.75;;;18.27;88.93
57248;BME280;55809;46.618;10.764;2023-07-13T05:27:09;93061.22;;;18.57;89.64
57248;BME280;55809;46.618;10.764;2023-07-13T05:29:36;93085.22;;;18.74;88.87
57248;BME280;55809;46.618;10.764;2023-07-13T05:32:04;93066.31;;;18.67;88.52
57248;BME280;55809;46.618;10.764;2023-07-13T05:34:31;93082.88;;;18.86;88.39
57248;BME280;55809;46.618;10.764;2023-07-13T05:36:58;93075.72;;;18.88;88.95
57248;BME280;55809;46.618;10.764;2023-07-13T05:39:27;93018.69;;;18.56;89.36
57248;BME280;55809;46.618;10.764;2023-07-13T05:41:54;93074.44;;;19.02;87.98
57248;BME280;55809;46.618;10.764;2023-07-13T05:44:21;93084.66;;;19.11;87.46
57248;BME280;55809;46.618;10.764;2023-07-13T05:46:48;93081.97;;;19.20;87.29
57248;BME280;55809;46.618;10.764;2023-07-13T05:49:15;93029.59;;;19.00;84.15
57248;BME280;55809;46.618;10.764;2023-07-13T05:51:42;93018.88;;;18.83;84.48
57248;BME280;55809;46.618;10.764;2023-07-13T05:54:10;93042.00;;;18.91;84.90
57248;BME280;55809;46.618;10.764;2023-07-13T05:56:38;93064.31;;;19.12;85.78
57248;BME280;55809;46.618;10.764;2023-07-13T05:59:05;93064.31;;;19.21;86.88
57248;BME280;55809;46.618;10.764;2023-07-13T06:01:32;93069.22;;;19.26;86.37
57248;BME280;55809;46.618;10.764;2023-07-13T06:03:59;93021.34;;;19.40;85.07
57248;BME280;55809;46.618;10.764;2023-07-13T06:06:32;93060.84;;;19.70;84.30
57248;BME280;55809;46.618;10.764;2023-07-13T06:08:59;92998.25;;;19.41;82.70
57248;BME280;55809;46.618;10.764;2023-07-13T06:11:27;93064.38;;;19.80;83.71
57248;BME280;55809;46.618;10.764;2023-07-13T06:13:57;93061.34;;;19.87;83.82
57248;BME280;55809;46.618;10.764;2023-07-13T06:16:24;93044.28;;;19.74;80.96
57248;BME280;55809;46.618;10.764;2023-07-13T06:18:51;93070.34;;;19.87;80.11
57248;BME280;55809;46.618;10.764;2023-07-13T06:21:19;93070.78;;;19.86;80.98
57248;BME280;55809;46.618;10.764;2023-07-13T06:23:48;93050.22;;;19.72;78.81
57248;BME280;55809;46.618;10.764;2023-07-13T06:26:18;93080.22;;;19.85;80.38
57248;BME280;55809;46.618;10.764;2023-07-13T06:28:45;93066.66;;;19.72;81.45
57248;BME280;55809;46.618;10.764;2023-07-13T06:31:15;93067.25;;;19.76;79.50
57248;BME280;55809;46.618;10.764;2023-07-13T06:33:43;93044.81;;;19.50;79.82
57248;BME280;55809;46.618;10.764;2023-07-13T06:36:10;93081.69;;;19.67;78.52
57248;BME280;55809;46.618;10.764;2023-07-13T06:38:38;93083.81;;;19.63;79.18
57248;BME280;55809;46.618;10.764;2023-07-13T06:41:06;93066.25;;;19.52;79.29
57248;BME280;55809;46.618;10.764;2023-07-13T06:43:34;93083.03;;;19.63;80.44
57248;BME280;55809;46.618;10.764;2023-07-13T06:46:01;93049.53;;;19.50;82.68
57248;BME280;55809;46.618;10.764;2023-07-13T06:48:30;93085.34;;;19.74;80.66
57248;BME280;55809;46.618;10.764;2023-07-13T06:50:57;93093.41;;;19.77;81.60
57248;BME280;55809;46.618;10.764;2023-07-13T06:53:24;93063.81;;;19.54;81.30
57248;BME280;55809;46.618;10.764;2023-07-13T06:55:51;93094.47;;;19.71;80.91
57248;BME280;55809;46.618;10.764;2023-07-13T06:58:19;93104.09;;;19.75;80.75
57248;BME280;55809;46.618;10.764;2023-07-13T07:00:46;93101.00;;;19.64;80.74
57248;BME280;55809;46.618;10.764;2023-07-13T07:03:13;93102.66;;;19.61;80.58
57248;BME280;55809;46.618;10.764;2023-07-13T07:05:42;93087.84;;;19.50;82.21
57248;BME280;55809;46.618;10.764;2023-07-13T07:08:09;93100.88;;;19.77;82.00
57248;BME280;55809;46.618;10.764;2023-07-13T07:10:36;93094.81;;;19.82;82.38
57248;BME280;55809;46.618;10.764;2023-07-13T07:13:03;93060.25;;;19.66;82.39
57248;BME280;55809;46.618;10.764;2023-07-13T07:15:30;93040.00;;;19.63;80.58
57248;BME280;55809;46.618;10.764;2023-07-13T07:17:57;93035.13;;;19.67;80.33
57248;BME280;55809;46.618;10.764;2023-07-13T07:20:24;93079.19;;;20.01;78.52
57248;BME280;55809;46.618;10.764;2023-07-13T07:22:53;93065.63;;;20.15;76.98
57248;BME280;55809;46.618;10.764;2023-07-13T07:25:20;93084.03;;;20.79;77.71
57248;BME280;55809;46.618;10.764;2023-07-13T07:27:47;93052.09;;;20.67;74.88
57248;BME280;55809;46.618;10.764;2023-07-13T07:30:14;93087.09;;;20.91;74.28
57248;BME280;55809;46.618;10.764;2023-07-13T07:32:41;93027.50;;;20.73;72.45
57248;BME280;55809;46.618;10.764;2023-07-13T07:35:09;93025.50;;;20.92;71.07
57248;BME280;55809;46.618;10.764;2023-07-13T07:37:36;93075.16;;;21.54;70.09
57248;BME280;55809;46.618;10.764;2023-07-13T07:40:07;93055.06;;;21.96;69.10
57248;BME280;55809;46.618;10.764;2023-07-13T07:42:34;93033.44;;;21.89;67.65
57248;BME280;55809;46.618;10.764;2023-07-13T07:45:01;93062.00;;;22.16;68.02
57248;BME280;55809;46.618;10.764;2023-07-13T07:47:28;93033.47;;;22.04;66.94
57248;BME280;55809;46.618;10.764;2023-07-13T07:49:55;93061.34;;;22.75;65.20
57248;BME280;55809;46.618;10.764;2023-07-13T07:52:22;93058.56;;;22.60;65.54
57248;BME280;55809;46.618;10.764;2023-07-13T07:54:49;93059.44;;;22.51;65.45
57248;BME280;55809;46.618;10.764;2023-07-13T07:57:19;93055.41;;;22.37;65.57
57248;BME280;55809;46.618;10.764;2023-07-13T07:59:46;93052.38;;;22.11;66.83
57248;BME280;55809;46.618;10.764;2023-07-13T08:02:14;93052.91;;;22.00;66.85
57248;BME280;55809;46.618;10.764;2023-07-13T08:04:41;93045.94;;;21.90;66.78
57248;BME280;55809;46.618;10.764;2023-07-13T08:07:09;93048.94;;;21.77;68.19
57248;BME280;55809;46.618;10.764;2023-07-13T08:09:36;93037.94;;;21.77;68.63
57248;BME280;55809;46.618;10.764;2023-07-13T08:12:04;93013.56;;;21.70;66.96
57248;BME280;55809;46.618;10.764;2023-07-13T08:14:33;93040.06;;;21.83;67.55
57248;BME280;55809;46.618;10.764;2023-07-13T08:17:00;93051.13;;;21.64;70.30
57248;BME280;55809;46.618;10.764;2023-07-13T08:19:27;93036.41;;;21.52;70.18
57248;BME280;55809;46.618;10.764;2023-07-13T08:21:54;93023.09;;;21.60;71.14
57248;BME280;55809;46.618;10.764;2023-07-13T08:24:23;93044.28;;;22.08;70.55
57248;BME280;55809;46.618;10.764;2023-07-13T08:26:50;93048.63;;;22.47;67.14
57248;BME280;55809;46.618;10.764;2023-07-13T08:29:18;93021.69;;;21.89;69.72
57248;BME280;55809;46.618;10.764;2023-07-13T08:31:47;93062.22;;;21.79;70.50
57248;BME280;55809;46.618;10.764;2023-07-13T08:34:14;93053.38;;;21.42;71.68
57248;BME280;55809;46.618;10.764;2023-07-13T08:36:41;93057.63;;;21.00;73.24
57248;BME280;55809;46.618;10.764;2023-07-13T08:39:08;93002.56;;;20.52;75.60
57248;BME280;55809;46.618;10.764;2023-07-13T08:41:35;93026.03;;;20.44;75.01
57248;BME280;55809;46.618;10.764;2023-07-13T08:44:07;93034.72;;;20.52;75.76
57248;BME280;55809;46.618;10.764;2023-07-13T08:46:44;93053.09;;;20.79;76.19
57248;BME280;55809;46.618;10.764;2023-07-13T08:49:15;93040.44;;;20.91;76.18
57248;BME280;55809;46.618;10.764;2023-07-13T08:51:45;93048.66;;;20.91;75.04
57248;BME280;55809;46.618;10.764;2023-07-13T08:54:23;93049.44;;;20.91;74.45
57248;BME280;55809;46.618;10.764;2023-07-13T08:56:55;93048.25;;;20.83;76.89
57248;BME280;55809;46.618;10.764;2023-07-13T08:59:26;93033.63;;;20.68;78.80
57248;BME280;55809;46.618;10.764;2023-07-13T09:04:52;93071.13;;;20.61;76.19
57248;BME280;55809;46.618;10.764;2023-07-13T09:07:31;93064.25;;;20.66;76.84
57248;BME280;55809;46.618;10.764;2023-07-13T09:10:12;93069.28;;;20.68;77.58
57248;BME280;55809;46.618;10.764;2023-07-13T09:12:49;93070.53;;;20.57;79.21
57248;BME280;55809;46.618;10.764;2023-07-13T09:15:24;93047.97;;;20.26;79.62
57248;BME280;55809;46.618;10.764;2023-07-13T09:17:57;93053.91;;;20.06;80.24
57248;BME280;55809;46.618;10.764;2023-07-13T09:33:07;93058.78;;;20.20;82.81
57248;BME280;55809;46.618;10.764;2023-07-13T09:35:36;93043.84;;;20.39;81.34
57248;BME280;55809;46.618;10.764;2023-07-13T09:38:11;93075.44;;;21.57;77.64
57248;BME280;55809;46.618;10.764;2023-07-13T09:40:44;93050.34;;;22.21;74.92
57248;BME280;55809;46.618;10.764;2023-07-13T09:43:15;93056.53;;;22.84;71.75
57248;BME280;55809;46.618;10.764;2023-07-13T09:45:45;93030.03;;;23.31;71.49
57248;BME280;55809;46.618;10.764;2023-07-13T09:48:17;93058.69;;;23.39;68.71
57248;BME280;55809;46.618;10.764;2023-07-13T09:50:44;93050.56;;;23.15;68.62
57248;BME280;55809;46.618;10.764;2023-07-13T09:53:12;93035.75;;;22.98;70.35
57248;BME280;55809;46.618;10.764;2023-07-13T09:55:40;93039.91;;;22.79;69.79
57248;BME280;55809;46.618;10.764;2023-07-13T09:58:11;93060.00;;;22.70;69.93
57248;BME280;55809;46.618;10.764;2023-07-13T10:00:39;93059.75;;;23.12;68.37
57248;BME280;55809;46.618;10.764;2023-07-13T10:03:17;93062.72;;;22.94;67.97
57248;BME280;55809;46.618;10.764;2023-07-13T10:05:47;93068.75;;;22.68;70.17
57248;BME280;55809;46.618;10.764;2023-07-13T10:08:21;93066.06;;;22.59;70.99
57248;BME280;55809;46.618;10.764;2023-07-13T10:10:53;93064.31;;;22.08;71.71
57248;BME280;55809;46.618;10.764;2023-07-13T10:13:29;93041.00;;;21.80;73.24
57248;BME280;55809;46.618;10.764;2023-07-13T10:15:58;93002.75;;;21.43;73.89
57248;BME280;55809;46.618;10.764;2023-07-13T10:18:28;93038.00;;;21.35;74.98
57248;BME280;55809;46.618;10.764;2023-07-13T10:21:16;93067.56;;;21.49;75.15
57248;BME280;55809;46.618;10.764;2023-07-13T10:23:48;93061.84;;;21.62;73.70
57248;BME280;55809;46.618;10.764;2023-07-13T10:26:21;93055.47;;;21.80;74.68
57248;BME280;55809;46.618;10.764;2023-07-13T10:28:54;93055.66;;;22.00;73.94
57248;BME280;55809;46.618;10.764;2023-07-13T10:31:24;93021.28;;;22.44;73.35
57248;BME280;55809;46.618;10.764;2023-07-13T10:33:58;93026.81;;;22.59;71.38
57248;BME280;55809;46.618;10.764;2023-07-13T10:36:31;93033.94;;;23.25;68.49
57248;BME280;55809;46.618;10.764;2023-07-13T10:39:01;93023.13;;;24.12;66.61
57248;BME280;55809;46.618;10.764;2023-07-13T10:41:32;93023.69;;;23.60;66.59
57248;BME280;55809;46.618;10.764;2023-07-13T10:44:02;93017.22;;;23.63;64.41
57248;BME280;55809;46.618;10.764;2023-07-13T10:46:41;93004.56;;;23.72;65.80
57248;BME280;55809;46.618;10.764;2023-07-13T10:49:16;93018.22;;;23.81;65.46
57248;BME280;55809;46.618;10.764;2023-07-13T10:51:45;93022.34;;;23.56;65.86
57248;BME280;55809;46.618;10.764;2023-07-13T10:54:18;93019.50;;;23.15;65.40
57248;BME280;55809;46.618;10.764;2023-07-13T10:56:50;93029.84;;;22.90;66.79
57248;BME280;55809;46.618;10.764;2023-07-13T10:59:17;93029.75;;;22.85;68.37
57248;BME280;55809;46.618;10.764;2023-07-13T11:01:56;93024.16;;;22.64;67.08
57248;BME280;55809;46.618;10.764;2023-07-13T11:04:27;92985.63;;;22.11;68.96
57248;BME280;55809;46.618;10.764;2023-07-13T11:06:58;93012.53;;;22.07;70.55
57248;BME280;55809;46.618;10.764;2023-07-13T11:09:37;92997.56;;;21.69;70.79
57248;BME280;55809;46.618;10.764;2023-07-13T11:12:26;93009.19;;;21.64;74.11
57248;BME280;55809;46.618;10.764;2023-07-13T11:15:06;92985.78;;;21.44;75.14
57248;BME280;55809;46.618;10.764;2023-07-13T11:17:46;93008.94;;;21.52;74.59
57248;BME280;55809;46.618;10.764;2023-07-13T11:20:33;93024.09;;;21.72;75.27
57248;BME280;55809;46.618;10.764;2023-07-13T11:23:28;93024.69;;;21.76;73.71
57248;BME280;55809;46.618;10.764;2023-07-13T11:25:56;93026.00;;;21.81;75.34
57248;BME280;55809;46.618;10.764;2023-07-13T11:28:27;93029.25;;;21.79;76.00
57248;BME280;55809;46.618;10.764;2023-07-13T11:31:02;93002.44;;;21.65;75.78
57248;BME280;55809;46.618;10.764;2023-07-13T11:33:50;93021.28;;;21.81;76.63
57248;BME280;55809;46.618;10.764;2023-07-13T11:36:21;93037.44;;;21.88;76.72
57248;BME280;55809;46.618;10.764;2023-07-13T11:38:57;93050.00;;;21.80;77.39
57248;BME280;55809;46.618;10.764;2023-07-13T11:41:27;93059.91;;;21.53;76.37
57248;BME280;55809;46.618;10.764;2023-07-13T11:44:05;93033.16;;;21.21;76.28
57248;BME280;55809;46.618;10.764;2023-07-13T11:46:33;93025.31;;;21.04;79.83
57248;BME280;55809;46.618;10.764;2023-07-13T11:49:00;93068.69;;;21.24;79.59
57248;BME280;55809;46.618;10.764;2023-07-13T11:51:32;93050.63;;;20.99;81.69
57248;BME280;55809;46.618;10.764;2023-07-13T11:54:03;93064.66;;;20.92;82.10
57248;BME280;55809;46.618;10.764;2023-07-13T11:56:32;93065.28;;;20.96;82.45
57248;BME280;55809;46.618;10.764;2023-07-13T11:59:04;93078.09;;;20.90;85.59
57248;BME280;55809;46.618;10.764;2023-07-13T12:01:32;93089.41;;;20.83;84.40
57248;BME280;55809;46.618;10.764;2023-07-13T12:04:01;93087.25;;;20.78;84.74
57248;BME280;55809;46.618;10.764;2023-07-13T12:06:32;93091.22;;;20.77;83.40
57248;BME280;55809;46.618;10.764;2023-07-13T12:09:03;93097.63;;;20.74;84.14
57248;BME280;55809;46.618;10.764;2023-07-13T12:11:40;93108.00;;;20.70;84.69
57248;BME280;55809;46.618;10.764;2023-07-13T12:14:13;93102.06;;;20.62;84.53
57248;BME280;55809;46.618;10.764;2023-07-13T12:16:41;93110.91;;;20.57;85.94
57248;BME280;55809;46.618;10.764;2023-07-13T12:19:17;93082.53;;;20.23;86.61
57248;BME280;55809;46.618;10.764;2023-07-13T12:21:48;93116.03;;;20.46;85.15
57248;BME280;55809;46.618;10.764;2023-07-13T12:24:17;93128.06;;;20.39;83.40
57248;BME280;55809;46.618;10.764;2023-07-13T12:26:50;93097.28;;;20.17;81.37
57248;BME280;55809;46.618;10.764;2023-07-13T12:29:18;93137.34;;;20.32;81.47
57248;BME280;55809;46.618;10.764;2023-07-13T12:31:47;93136.28;;;20.30;83.84
57248;BME280;55809;46.618;10.764;2023-07-13T12:34:16;93134.00;;;20.28;85.60
57248;BME280;55809;46.618;10.764;2023-07-13T12:36:49;93137.06;;;20.30;86.98
57248;BME280;55809;46.618;10.764;2023-07-13T12:39:18;93137.84;;;20.31;85.23
57248;BME280;55809;46.618;10.764;2023-07-13T12:41:47;93126.53;;;20.20;84.41
57248;BME280;55809;46.618;10.764;2023-07-13T12:44:17;93154.13;;;20.34;84.55
57248;BME280;55809;46.618;10.764;2023-07-13T12:46:53;93136.13;;;20.15;85.59
57248;BME280;55809;46.618;10.764;2023-07-13T12:49:23;93147.25;;;20.30;85.46
57248;BME280;55809;46.618;10.764;2023-07-13T12:51:56;93151.97;;;20.29;84.97
57248;BME280;55809;46.618;10.764;2023-07-13T12:54:24;93147.25;;;20.30;86.53
57248;BME280;55809;46.618;10.764;2023-07-13T12:56:53;93136.72;;;20.10;86.14
57248;BME280;55809;46.618;10.764;2023-07-13T12:59:25;93124.06;;;20.03;85.99
57248;BME280;55809;46.618;10.764;2023-07-13T13:01:55;93160.03;;;20.14;85.28
57248;BME280;55809;46.618;10.764;2023-07-13T13:04:23;93140.34;;;19.88;85.64
57248;BME280;55809;46.618;10.764;2023-07-13T13:07:03;93144.31;;;19.87;85.81
57248;BME280;55809;46.618;10.764;2023-07-13T13:09:30;93142.88;;;19.74;85.60
57248;BME280;55809;46.618;10.764;2023-07-13T13:11:58;93135.94;;;19.60;86.67
57248;BME280;55809;46.618;10.764;2023-07-13T13:14:25;93195.91;;;19.98;85.57
57248;BME280;55809;46.618;10.764;2023-07-13T13:16:52;93191.78;;;19.94;85.47
57248;BME280;55809;46.618;10.764;2023-07-13T13:19:23;93184.78;;;19.92;85.21
57248;BME280;55809;46.618;10.764;2023-07-13T13:21:53;93189.16;;;19.81;85.28
57248;BME280;55809;46.618;10.764;2023-07-13T13:24:24;93163.31;;;19.60;85.79
57248;BME280;55809;46.618;10.764;2023-07-13T13:26:53;93194.50;;;19.84;87.09
57248;BME280;55809;46.618;10.764;2023-07-13T13:29:23;93170.53;;;19.66;87.12
57248;BME280;55809;46.618;10.764;2023-07-13T13:31:51;93179.38;;;19.71;86.66